sensor_id;sensor_type;location;lat;lon;timestamp;temperature;humidity
71047;SHT31;58703;48.978;8.982;2023-01-29T00:02:00;-0.23;81.07
71047;SHT31;58703;48.978;8.982;2023-01-29T00:04:25;-0.25;80.68
71047;SHT31;58703;48.978;8.982;2023-01-29T00:06:51;-0.20;81.93
71047;SHT31;58703;48.978;8.982;2023-01-29T00:09:18;-0.15;80.82
71047;SHT31;58703;48.978;8.982;2023-01-29T00:11:45;-0.15;81.23
71047;SHT31;58703;48.978;8.982;2023-01-29T00:14:10;-0.18;80.61
71047;SHT31;58703;48.978;8.982;2023-01-29T00:16:37;-0.10;81.03
71047;SHT31;58703;48.978;8.982;2023-01-29T00:19:03;-0.11;81.81
71047;SHT31;58703;48.978;8.982;2023-01-29T00:21:30;-0.15;81.55
71047;SHT31;58703;48.978;8.982;2023-01-29T00:23:58;-0.14;81.43
71047;SHT31;58703;48.978;8.982;2023-01-29T00:26:26;-0.33;82.96
71047;SHT31;58703;48.978;8.982;2023-01-29T00:28:52;-0.41;84.07
71047;SHT31;58703;48.978;8.982;2023-01-29T00:31:20;-0.41;85.23
71047;SHT31;58703;48.978;8.982;2023-01-29T00:33:47;-0.25;82.60
71047;SHT31;58703;48.978;8.982;2023-01-29T00:36:15;-0.27;80.89
71047;SHT31;58703;48.978;8.982;2023-01-29T00:38:42;-0.25;80.55
71047;SHT31;58703;48.978;8.982;2023-01-29T00:41:12;-0.25;81.49
71047;SHT31;58703;48.978;8.982;2023-01-29T00:43:58;-0.38;81.03
71047;SHT31;58703;48.978;8.982;2023-01-29T00:46:43;-0.40;82.83
71047;SHT31;58703;48.978;8.982;2023-01-29T00:49:08;-0.34;84.03
71047;SHT31;58703;48.978;8.982;2023-01-29T00:51:35;-0.27;84.41
71047;SHT31;58703;48.978;8.982;2023-01-29T00:54:01;-0.09;84.88
71047;SHT31;58703;48.978;8.982;2023-01-29T00:56:35;-0.17;81.94
71047;SHT31;58703;48.978;8.982;2023-01-29T00:59:02;-0.18;81.43
71047;SHT31;58703;48.978;8.982;2023-01-29T01:01:29;-0.24;83.15
71047;SHT31;58703;48.978;8.982;2023-01-29T01:04:15;-0.21;83.32
71047;SHT31;58703;48.978;8.982;2023-01-29T01:06:42;-0.23;82.70
71047;SHT31;58703;48.978;8.982;2023-01-29T01:09:08;-0.42;84.38
71047;SHT31;58703;48.978;8.982;2023-01-29T01:11:54;-0.57;84.60
71047;SHT31;58703;48.978;8.982;2023-01-29T01:14:20;-0.61;84.69
71047;SHT31;58703;48.978;8.982;2023-01-29T01:16:46;-0.68;84.48
71047;SHT31;58703;48.978;8.982;2023-01-29T01:19:13;-0.62;84.78
71047;SHT31;58703;48.978;8.982;2023-01-29T01:21:39;-0.65;85.16
71047;SHT31;58703;48.978;8.982;2023-01-29T01:24:05;-0.61;86.09
71047;SHT31;58703;48.978;8.982;2023-01-29T01:26:32;-0.57;85.60
71047;SHT31;58703;48.978;8.982;2023-01-29T01:28:58;-0.48;84.02
71047;SHT31;58703;48.978;8.982;2023-01-29T01:31:24;-0.44;84.95
71047;SHT31;58703;48.978;8.982;2023-01-29T01:33:50;-0.42;85.89
71047;SHT31;58703;48.978;8.982;2023-01-29T01:36:16;-0.44;85.01
71047;SHT31;58703;48.978;8.982;2023-01-29T01:38:42;-0.51;85.04
71047;SHT31;58703;48.978;8.982;2023-01-29T01:41:13;-0.55;85.43
71047;SHT31;58703;48.978;8.982;2023-01-29T01:44:00;-0.61;85.68
71047;SHT31;58703;48.978;8.982;2023-01-29T01:46:31;-0.54;85.98
71047;SHT31;58703;48.978;8.982;2023-01-29T01:51:34;-0.64;84.97
71047;SHT31;58703;48.978;8.982;2023-01-29T01:54:08;-0.68;84.67
71047;SHT31;58703;48.978;8.982;2023-01-29T01:56:40;-0.74;84.56
71047;SHT31;58703;48.978;8.982;2023-01-29T01:59:12;-0.68;84.07
71047;SHT31;58703;48.978;8.982;2023-01-29T02:01:41;-0.71;83.53
71047;SHT31;58703;48.978;8.982;2023-01-29T02:04:20;-0.66;83.74
71047;SHT31;58703;48.978;8.982;2023-01-29T02:07:07;-0.65;84.01
71047;SHT31;58703;48.978;8.982;2023-01-29T02:09:58;-0.65;84.06
71047;SHT31;58703;48.978;8.982;2023-01-29T02:12:26;-0.68;83.62
71047;SHT31;58703;48.978;8.982;2023-01-29T02:14:57;-0.74;84.41
71047;SHT31;58703;48.978;8.982;2023-01-29T02:17:23;-0.74;85.14
71047;SHT31;58703;48.978;8.982;2023-01-29T02:31:29;-0.93;84.38
71047;SHT31;58703;48.978;8.982;2023-01-29T02:34:13;-1.06;84.75
71047;SHT31;58703;48.978;8.982;2023-01-29T02:36:45;-1.05;85.17
71047;SHT31;58703;48.978;8.982;2023-01-29T02:39:18;-0.99;84.49
71047;SHT31;58703;48.978;8.982;2023-01-29T02:42:10;-0.96;84.21
71047;SHT31;58703;48.978;8.982;2023-01-29T02:44:41;-0.96;85.34
71047;SHT31;58703;48.978;8.982;2023-01-29T02:47:47;-1.00;84.11
71047;SHT31;58703;48.978;8.982;2023-01-29T02:50:36;-0.97;85.96
71047;SHT31;58703;48.978;8.982;2023-01-29T02:53:22;-1.02;85.21
71047;SHT31;58703;48.978;8.982;2023-01-29T02:56:14;-1.05;84.96
71047;SHT31;58703;48.978;8.982;2023-01-29T02:59:00;-0.93;85.14
71047;SHT31;58703;48.978;8.982;2023-01-29T03:01:40;-1.00;85.36
71047;SHT31;58703;48.978;8.982;2023-01-29T03:04:13;-0.97;85.11
71047;SHT31;58703;48.978;8.982;2023-01-29T03:06:44;-1.09;85.00
71047;SHT31;58703;48.978;8.982;2023-01-29T03:09:19;-1.03;86.02
71047;SHT31;58703;48.978;8.982;2023-01-29T03:11:52;-0.89;86.47
71047;SHT31;58703;48.978;8.982;2023-01-29T03:14:24;-0.99;84.74
71047;SHT31;58703;48.978;8.982;2023-01-29T03:17:14;-0.96;84.02
71047;SHT31;58703;48.978;8.982;2023-01-29T03:19:43;-0.93;83.74
71047;SHT31;58703;48.978;8.982;2023-01-29T03:22:12;-1.00;83.67
71047;SHT31;58703;48.978;8.982;2023-01-29T03:24:48;-0.91;84.00
71047;SHT31;58703;48.978;8.982;2023-01-29T03:27:56;-0.92;85.10
71047;SHT31;58703;48.978;8.982;2023-01-29T03:30:53;-0.71;86.46
71047;SHT31;58703;48.978;8.982;2023-01-29T03:33:44;-0.71;84.01
71047;SHT31;58703;48.978;8.982;2023-01-29T03:36:15;-0.85;85.08
71047;SHT31;58703;48.978;8.982;2023-01-29T03:38:43;-0.95;85.59
71047;SHT31;58703;48.978;8.982;2023-01-29T03:41:27;-0.92;83.83
71047;SHT31;58703;48.978;8.982;2023-01-29T03:44:11;-0.89;84.64
71047;SHT31;58703;48.978;8.982;2023-01-29T03:46:49;-0.79;85.04
71047;SHT31;58703;48.978;8.982;2023-01-29T03:49:39;-0.72;85.13
71047;SHT31;58703;48.978;8.982;2023-01-29T03:52:17;-0.81;84.17
71047;SHT31;58703;48.978;8.982;2023-01-29T03:57:25;-0.84;84.78
71047;SHT31;58703;48.978;8.982;2023-01-29T04:02:29;-0.69;83.96
71047;SHT31;58703;48.978;8.982;2023-01-29T04:04:58;-0.79;85.99
71047;SHT31;58703;48.978;8.982;2023-01-29T04:07:28;-0.84;85.98
71047;SHT31;58703;48.978;8.982;2023-01-29T04:10:02;-0.85;85.29
71047;SHT31;58703;48.978;8.982;2023-01-29T04:12:36;-0.86;85.81
71047;SHT31;58703;48.978;8.982;2023-01-29T04:15:07;-0.93;86.42
71047;SHT31;58703;48.978;8.982;2023-01-29T04:17:38;-0.97;86.50
71047;SHT31;58703;48.978;8.982;2023-01-29T04:20:07;-1.07;87.54
71047;SHT31;58703;48.978;8.982;2023-01-29T04:22:38;-1.10;86.52
71047;SHT31;58703;48.978;8.982;2023-01-29T04:25:13;-1.02;86.42
71047;SHT31;58703;48.978;8.982;2023-01-29T04:27:52;-1.00;85.37
71047;SHT31;58703;48.978;8.982;2023-01-29T04:44:28;-1.13;85.33
71047;SHT31;58703;48.978;8.982;2023-01-29T04:50:22;-1.17;87.24
71047;SHT31;58703;48.978;8.982;2023-01-29T04:56:17;-1.30;88.05
71047;SHT31;58703;48.978;8.982;2023-01-29T04:58:41;-1.17;87.90
71047;SHT31;58703;48.978;8.982;2023-01-29T05:01:12;-1.35;87.38
71047;SHT31;58703;48.978;8.982;2023-01-29T05:03:42;-1.44;87.11
71047;SHT31;58703;48.978;8.982;2023-01-29T05:06:09;-1.44;87.41
71047;SHT31;58703;48.978;8.982;2023-01-29T05:08:38;-1.43;86.54
71047;SHT31;58703;48.978;8.982;2023-01-29T05:11:05;-1.32;87.35
71047;SHT31;58703;48.978;8.982;2023-01-29T05:13:33;-1.23;86.74
71047;SHT31;58703;48.978;8.982;2023-01-29T05:16:04;-1.19;86.01
71047;SHT31;58703;48.978;8.982;2023-01-29T05:18:32;-1.25;85.16
71047;SHT31;58703;48.978;8.982;2023-01-29T05:21:01;-1.21;85.59
71047;SHT31;58703;48.978;8.982;2023-01-29T05:23:28;-1.21;85.91
71047;SHT31;58703;48.978;8.982;2023-01-29T05:25:55;-1.16;86.70
71047;SHT31;58703;48.978;8.982;2023-01-29T05:28:21;-1.07;86.21
71047;SHT31;58703;48.978;8.982;2023-01-29T05:30:53;-1.09;85.60
71047;SHT31;58703;48.978;8.982;2023-01-29T05:33:28;-1.15;84.04
71047;SHT31;58703;48.978;8.982;2023-01-29T05:35:55;-1.17;84.29
71047;SHT31;58703;48.978;8.982;2023-01-29T05:38:22;-1.30;85.08
71047;SHT31;58703;48.978;8.982;2023-01-29T05:40:49;-1.39;84.94
71047;SHT31;58703;48.978;8.982;2023-01-29T05:43:23;-1.33;85.66
71047;SHT31;58703;48.978;8.982;2023-01-29T05:45:53;-1.29;84.97
71047;SHT31;58703;48.978;8.982;2023-01-29T05:48:18;-1.20;85.32
71047;SHT31;58703;48.978;8.982;2023-01-29T05:50:45;-1.17;84.70
71047;SHT31;58703;48.978;8.982;2023-01-29T05:53:12;-1.17;85.21
71047;SHT31;58703;48.978;8.982;2023-01-29T05:55:39;-1.19;85.33
71047;SHT31;58703;48.978;8.982;2023-01-29T05:58:08;-1.16;84.94
71047;SHT31;58703;48.978;8.982;2023-01-29T06:00:34;-1.17;84.29
71047;SHT31;58703;48.978;8.982;2023-01-29T06:03:00;-1.21;83.68
71047;SHT31;58703;48.978;8.982;2023-01-29T06:05:25;-1.27;84.89
71047;SHT31;58703;48.978;8.982;2023-01-29T06:07:51;-1.33;85.59
71047;SHT31;58703;48.978;8.982;2023-01-29T06:10:17;-1.44;86.12
71047;SHT31;58703;48.978;8.982;2023-01-29T06:12:44;-1.44;86.26
71047;SHT31;58703;48.978;8.982;2023-01-29T06:15:12;-1.42;86.51
71047;SHT31;58703;48.978;8.982;2023-01-29T06:17:40;-1.33;86.76
71047;SHT31;58703;48.978;8.982;2023-01-29T06:20:06;-1.30;85.99
71047;SHT31;58703;48.978;8.982;2023-01-29T06:22:32;-1.32;85.61
71047;SHT31;58703;48.978;8.982;2023-01-29T06:24:58;-1.39;86.43
71047;SHT31;58703;48.978;8.982;2023-01-29T06:27:25;-1.44;86.10
71047;SHT31;58703;48.978;8.982;2023-01-29T06:29:51;-1.46;86.86
71047;SHT31;58703;48.978;8.982;2023-01-29T06:32:17;-1.47;85.24
71047;SHT31;58703;48.978;8.982;2023-01-29T06:34:42;-1.47;85.68
71047;SHT31;58703;48.978;8.982;2023-01-29T06:37:08;-1.50;85.30
71047;SHT31;58703;48.978;8.982;2023-01-29T06:39:34;-1.50;85.52
71047;SHT31;58703;48.978;8.982;2023-01-29T06:42:00;-1.50;85.76
71047;SHT31;58703;48.978;8.982;2023-01-29T06:44:26;-1.50;86.02
71047;SHT31;58703;48.978;8.982;2023-01-29T06:46:52;-1.44;86.55
71047;SHT31;58703;48.978;8.982;2023-01-29T06:49:19;-1.47;86.55
71047;SHT31;58703;48.978;8.982;2023-01-29T06:51:46;-1.51;86.10
71047;SHT31;58703;48.978;8.982;2023-01-29T06:54:13;-1.47;86.00
71047;SHT31;58703;48.978;8.982;2023-01-29T06:56:40;-1.46;86.09
71047;SHT31;58703;48.978;8.982;2023-01-29T06:59:05;-1.53;87.25
71047;SHT31;58703;48.978;8.982;2023-01-29T07:01:32;-1.60;87.15
71047;SHT31;58703;48.978;8.982;2023-01-29T07:03:59;-1.61;87.43
71047;SHT31;58703;48.978;8.982;2023-01-29T07:06:29;-1.58;87.91
71047;SHT31;58703;48.978;8.982;2023-01-29T07:08:56;-1.58;87.38
71047;SHT31;58703;48.978;8.982;2023-01-29T07:11:23;-1.53;87.23
71047;SHT31;58703;48.978;8.982;2023-01-29T07:13:50;-1.47;87.59
71047;SHT31;58703;48.978;8.982;2023-01-29T07:16:17;-1.42;86.23
71047;SHT31;58703;48.978;8.982;2023-01-29T07:18:43;-1.37;86.01
71047;SHT31;58703;48.978;8.982;2023-01-29T07:21:10;-1.40;86.40
71047;SHT31;58703;48.978;8.982;2023-01-29T07:23:37;-1.39;86.00
71047;SHT31;58703;48.978;8.982;2023-01-29T07:26:04;-1.30;86.25
71047;SHT31;58703;48.978;8.982;2023-01-29T07:28:35;-1.25;85.19
71047;SHT31;58703;48.978;8.982;2023-01-29T07:31:01;-1.19;84.95
71047;SHT31;58703;48.978;8.982;2023-01-29T07:33:29;-1.15;84.71
71047;SHT31;58703;48.978;8.982;2023-01-29T07:35:56;-1.12;85.36
71047;SHT31;58703;48.978;8.982;2023-01-29T07:38:22;-1.16;85.17
71047;SHT31;58703;48.978;8.982;2023-01-29T07:40:51;-1.07;85.98
71047;SHT31;58703;48.978;8.982;2023-01-29T07:43:18;-1.07;85.54
71047;SHT31;58703;48.978;8.982;2023-01-29T07:45:46;-0.99;85.56
71047;SHT31;58703;48.978;8.982;2023-01-29T07:48:13;-1.12;84.92
71047;SHT31;58703;48.978;8.982;2023-01-29T07:50:40;-1.06;83.66
71047;SHT31;58703;48.978;8.982;2023-01-29T07:53:11;-0.93;84.62
71047;SHT31;58703;48.978;8.982;2023-01-29T07:55:39;-0.91;83.24
71047;SHT31;58703;48.978;8.982;2023-01-29T07:58:07;-0.86;83.12
71047;SHT31;58703;48.978;8.982;2023-01-29T08:00:34;-0.82;83.89
71047;SHT31;58703;48.978;8.982;2023-01-29T08:03:10;-0.88;83.67
71047;SHT31;58703;48.978;8.982;2023-01-29T08:05:38;-0.85;83.80
71047;SHT31;58703;48.978;8.982;2023-01-29T08:08:04;-0.81;84.09
71047;SHT31;58703;48.978;8.982;2023-01-29T08:10:32;-0.74;83.96
71047;SHT31;58703;48.978;8.982;2023-01-29T08:13:00;-0.79;84.46
71047;SHT31;58703;48.978;8.982;2023-01-29T08:15:28;-0.88;84.05
71047;SHT31;58703;48.978;8.982;2023-01-29T08:17:55;-0.89;84.26
71047;SHT31;58703;48.978;8.982;2023-01-29T08:20:22;-0.86;83.73
71047;SHT31;58703;48.978;8.982;2023-01-29T08:22:57;-0.69;84.42
71047;SHT31;58703;48.978;8.982;2023-01-29T08:25:24;-0.61;83.71
71047;SHT31;58703;48.978;8.982;2023-01-29T08:27:51;-0.65;83.15
71047;SHT31;58703;48.978;8.982;2023-01-29T08:30:16;-0.51;83.63
71047;SHT31;58703;48.978;8.982;2023-01-29T08:32:42;-0.52;83.01
71047;SHT31;58703;48.978;8.982;2023-01-29T08:35:09;-0.55;83.39
71047;SHT31;58703;48.978;8.982;2023-01-29T08:37:36;-0.33;83.52
71047;SHT31;58703;48.978;8.982;2023-01-29T08:40:03;-0.30;83.09
71047;SHT31;58703;48.978;8.982;2023-01-29T08:42:30;-0.13;82.85
71047;SHT31;58703;48.978;8.982;2023-01-29T08:44:55;-0.11;83.10
71047;SHT31;58703;48.978;8.982;2023-01-29T08:47:20;-0.14;82.42
71047;SHT31;58703;48.978;8.982;2023-01-29T08:49:47;0.09;82.46
71047;SHT31;58703;48.978;8.982;2023-01-29T08:52:14;0.13;80.78
71047;SHT31;58703;48.978;8.982;2023-01-29T08:54:40;0.10;80.89
71047;SHT31;58703;48.978;8.982;2023-01-29T08:57:07;0.20;81.53
71047;SHT31;58703;48.978;8.982;2023-01-29T08:59:34;0.48;80.88
71047;SHT31;58703;48.978;8.982;2023-01-29T09:02:00;0.45;79.04
71047;SHT31;58703;48.978;8.982;2023-01-29T09:04:27;0.30;79.81
71047;SHT31;58703;48.978;8.982;2023-01-29T09:06:54;0.34;80.62
71047;SHT31;58703;48.978;8.982;2023-01-29T09:09:19;0.52;79.31
71047;SHT31;58703;48.978;8.982;2023-01-29T09:11:46;0.50;78.57
71047;SHT31;58703;48.978;8.982;2023-01-29T09:14:13;0.42;78.20
71047;SHT31;58703;48.978;8.982;2023-01-29T09:16:39;0.61;79.06
71047;SHT31;58703;48.978;8.982;2023-01-29T09:19:04;0.79;78.93
71047;SHT31;58703;48.978;8.982;2023-01-29T09:21:32;1.00;77.78
71047;SHT31;58703;48.978;8.982;2023-01-29T09:23:57;1.17;78.47
71047;SHT31;58703;48.978;8.982;2023-01-29T09:26:24;1.47;77.23
71047;SHT31;58703;48.978;8.982;2023-01-29T09:28:51;1.57;75.50
71047;SHT31;58703;48.978;8.982;2023-01-29T09:31:18;1.78;75.04
71047;SHT31;58703;48.978;8.982;2023-01-29T09:33:44;1.89;77.01
71047;SHT31;58703;48.978;8.982;2023-01-29T09:36:11;1.98;75.00
71047;SHT31;58703;48.978;8.982;2023-01-29T09:38:38;1.95;74.79
71047;SHT31;58703;48.978;8.982;2023-01-29T09:43:57;2.33;73.69
71047;SHT31;58703;48.978;8.982;2023-01-29T09:46:34;1.98;73.25
71047;SHT31;58703;48.978;8.982;2023-01-29T09:49:14;2.15;73.20
71047;SHT31;58703;48.978;8.982;2023-01-29T09:51:48;2.75;73.64
71047;SHT31;58703;48.978;8.982;2023-01-29T09:54:27;2.40;71.15
71047;SHT31;58703;48.978;8.982;2023-01-29T09:57:09;1.79;74.43
71047;SHT31;58703;48.978;8.982;2023-01-29T09:59:38;1.68;74.48
71047;SHT31;58703;48.978;8.982;2023-01-29T10:07:54;1.93;71.93
71047;SHT31;58703;48.978;8.982;2023-01-29T10:10:48;1.68;72.71
71047;SHT31;58703;48.978;8.982;2023-01-29T10:13:39;1.50;73.89
71047;SHT31;58703;48.978;8.982;2023-01-29T10:16:38;1.26;73.98
71047;SHT31;58703;48.978;8.982;2023-01-29T10:25:23;1.75;73.90
71047;SHT31;58703;48.978;8.982;2023-01-29T10:27:59;1.26;75.18
71047;SHT31;58703;48.978;8.982;2023-01-29T10:30:36;1.78;75.23
71047;SHT31;58703;48.978;8.982;2023-01-29T10:33:12;1.67;73.07
71047;SHT31;58703;48.978;8.982;2023-01-29T10:35:52;1.33;74.50
71047;SHT31;58703;48.978;8.982;2023-01-29T10:38:45;1.88;73.81
71047;SHT31;58703;48.978;8.982;2023-01-29T10:41:21;2.30;73.77
71047;SHT31;58703;48.978;8.982;2023-01-29T10:58:16;1.78;73.55
71047;SHT31;58703;48.978;8.982;2023-01-29T11:00:45;1.85;73.50
71047;SHT31;58703;48.978;8.982;2023-01-29T11:06:18;2.79;72.82
71047;SHT31;58703;48.978;8.982;2023-01-29T11:11:43;2.04;72.34
71047;SHT31;58703;48.978;8.982;2023-01-29T11:14:15;2.01;72.70
71047;SHT31;58703;48.978;8.982;2023-01-29T11:16:46;1.85;73.03
71047;SHT31;58703;48.978;8.982;2023-01-29T11:19:14;1.81;73.58
71047;SHT31;58703;48.978;8.982;2023-01-29T11:21:56;1.20;74.83
71047;SHT31;58703;48.978;8.982;2023-01-29T11:24:24;1.34;75.88
71047;SHT31;58703;48.978;8.982;2023-01-29T11:26:54;1.40;75.30
71047;SHT31;58703;48.978;8.982;2023-01-29T11:29:44;1.44;74.80
71047;SHT31;58703;48.978;8.982;2023-01-29T11:32:33;2.15;74.22
71047;SHT31;58703;48.978;8.982;2023-01-29T11:35:21;2.26;74.06
71047;SHT31;58703;48.978;8.982;2023-01-29T11:37:48;2.32;73.44
71047;SHT31;58703;48.978;8.982;2023-01-29T11:40:37;2.46;71.86
71047;SHT31;58703;48.978;8.982;2023-01-29T11:43:31;2.70;72.06
71047;SHT31;58703;48.978;8.982;2023-01-29T11:46:03;2.93;71.15
71047;SHT31;58703;48.978;8.982;2023-01-29T11:48:50;3.34;71.10
71047;SHT31;58703;48.978;8.982;2023-01-29T11:51:22;3.76;69.45
71047;SHT31;58703;48.978;8.982;2023-01-29T11:53:56;3.36;69.68
71047;SHT31;58703;48.978;8.982;2023-01-29T11:56:40;3.10;70.68
71047;SHT31;58703;48.978;8.982;2023-01-29T11:59:39;2.70;70.33
71047;SHT31;58703;48.978;8.982;2023-01-29T12:02:33;3.59;72.81
71047;SHT31;58703;48.978;8.982;2023-01-29T12:05:27;3.78;68.00
71047;SHT31;58703;48.978;8.982;2023-01-29T12:07:58;3.71;69.02
71047;SHT31;58703;48.978;8.982;2023-01-29T12:10:38;3.82;68.27
71047;SHT31;58703;48.978;8.982;2023-01-29T12:15:42;3.79;68.28
71047;SHT31;58703;48.978;8.982;2023-01-29T12:18:30;3.39;69.15
71047;SHT31;58703;48.978;8.982;2023-01-29T12:21:04;1.87;72.98
71047;SHT31;58703;48.978;8.982;2023-01-29T12:24:05;1.64;74.31
71047;SHT31;58703;48.978;8.982;2023-01-29T12:26:46;2.39;72.81
71047;SHT31;58703;48.978;8.982;2023-01-29T12:35:16;2.67;71.29
71047;SHT31;58703;48.978;8.982;2023-01-29T12:38:04;2.86;73.68
71047;SHT31;58703;48.978;8.982;2023-01-29T12:40:52;2.97;73.19
71047;SHT31;58703;48.978;8.982;2023-01-29T12:43:48;3.22;71.57
71047;SHT31;58703;48.978;8.982;2023-01-29T12:46:26;3.75;71.07
71047;SHT31;58703;48.978;8.982;2023-01-29T12:48:58;4.05;69.01
71047;SHT31;58703;48.978;8.982;2023-01-29T12:51:33;3.87;69.38
71047;SHT31;58703;48.978;8.982;2023-01-29T12:54:08;3.82;71.01
71047;SHT31;58703;48.978;8.982;2023-01-29T12:56:54;3.27;72.52
71047;SHT31;58703;48.978;8.982;2023-01-29T12:59:38;2.86;72.83
71047;SHT31;58703;48.978;8.982;2023-01-29T13:04:51;2.91;71.89
71047;SHT31;58703;48.978;8.982;2023-01-29T13:07:33;2.96;72.21
71047;SHT31;58703;48.978;8.982;2023-01-29T13:10:09;2.89;72.52
71047;SHT31;58703;48.978;8.982;2023-01-29T13:12:39;2.76;72.88
71047;SHT31;58703;48.978;8.982;2023-01-29T13:15:26;3.08;71.98
71047;SHT31;58703;48.978;8.982;2023-01-29T13:20:59;3.00;71.93
71047;SHT31;58703;48.978;8.982;2023-01-29T13:23:36;2.96;71.70
71047;SHT31;58703;48.978;8.982;2023-01-29T13:26:04;2.73;71.75
71047;SHT31;58703;48.978;8.982;2023-01-29T13:28:30;3.01;70.85
71047;SHT31;58703;48.978;8.982;2023-01-29T13:31:28;2.56;72.76
71047;SHT31;58703;48.978;8.982;2023-01-29T13:36:47;3.69;70.10
71047;SHT31;58703;48.978;8.982;2023-01-29T13:39:37;3.48;69.87
71047;SHT31;58703;48.978;8.982;2023-01-29T13:42:44;3.85;68.53
71047;SHT31;58703;48.978;8.982;2023-01-29T13:45:44;3.41;69.42
71047;SHT31;58703;48.978;8.982;2023-01-29T13:48:27;2.89;71.01
71047;SHT31;58703;48.978;8.982;2023-01-29T13:50:56;2.72;71.73
71047;SHT31;58703;48.978;8.982;2023-01-29T13:53:35;2.76;73.50
71047;SHT31;58703;48.978;8.982;2023-01-29T13:56:41;2.80;73.22
71047;SHT31;58703;48.978;8.982;2023-01-29T14:02:28;3.10;72.00
71047;SHT31;58703;48.978;8.982;2023-01-29T14:08:03;2.76;71.71
71047;SHT31;58703;48.978;8.982;2023-01-29T14:10:32;2.43;73.30
71047;SHT31;58703;48.978;8.982;2023-01-29T14:18:29;2.39;73.00
71047;SHT31;58703;48.978;8.982;2023-01-29T14:21:24;2.61;72.65
71047;SHT31;58703;48.978;8.982;2023-01-29T14:24:19;3.04;72.01
71047;SHT31;58703;48.978;8.982;2023-01-29T14:26:47;2.84;72.43
71047;SHT31;58703;48.978;8.982;2023-01-29T14:29:18;3.03;71.52
71047;SHT31;58703;48.978;8.982;2023-01-29T14:31:51;2.84;73.03
71047;SHT31;58703;48.978;8.982;2023-01-29T14:34:33;2.42;73.84
71047;SHT31;58703;48.978;8.982;2023-01-29T14:39:43;2.76;72.54
71047;SHT31;58703;48.978;8.982;2023-01-29T14:42:38;2.97;71.67
71047;SHT31;58703;48.978;8.982;2023-01-29T14:45:33;2.28;73.42
71047;SHT31;58703;48.978;8.982;2023-01-29T14:50:40;3.83;69.82
71047;SHT31;58703;48.978;8.982;2023-01-29T14:56:40;3.95;69.29
71047;SHT31;58703;48.978;8.982;2023-01-29T14:59:18;4.13;68.57
71047;SHT31;58703;48.978;8.982;2023-01-29T15:01:58;4.32;67.68
71047;SHT31;58703;48.978;8.982;2023-01-29T15:04:27;4.53;68.56
71047;SHT31;58703;48.978;8.982;2023-01-29T15:07:14;5.12;65.04
71047;SHT31;58703;48.978;8.982;2023-01-29T15:10:03;4.56;66.17
71047;SHT31;58703;48.978;8.982;2023-01-29T15:13:02;4.06;67.43
71047;SHT31;58703;48.978;8.982;2023-01-29T15:15:50;4.47;67.67
71047;SHT31;58703;48.978;8.982;2023-01-29T15:18:38;4.27;67.25
71047;SHT31;58703;48.978;8.982;2023-01-29T15:21:15;4.43;67.01
71047;SHT31;58703;48.978;8.982;2023-01-29T15:23:43;4.46;66.54
71047;SHT31;58703;48.978;8.982;2023-01-29T15:26:16;4.47;66.98
71047;SHT31;58703;48.978;8.982;2023-01-29T15:28:44;4.47;67.99
71047;SHT31;58703;48.978;8.982;2023-01-29T15:31:14;4.54;67.05
71047;SHT31;58703;48.978;8.982;2023-01-29T15:33:44;4.11;69.29
71047;SHT31;58703;48.978;8.982;2023-01-29T15:36:23;4.20;67.79
71047;SHT31;58703;48.978;8.982;2023-01-29T15:39:20;3.73;68.42
71047;SHT31;58703;48.978;8.982;2023-01-29T15:41:50;4.00;69.01
71047;SHT31;58703;48.978;8.982;2023-01-29T15:44:29;3.93;69.10
71047;SHT31;58703;48.978;8.982;2023-01-29T15:46:57;3.55;69.54
71047;SHT31;58703;48.978;8.982;2023-01-29T15:49:32;2.89;71.95
71047;SHT31;58703;48.978;8.982;2023-01-29T15:52:04;2.09;74.00
71047;SHT31;58703;48.978;8.982;2023-01-29T15:54:32;1.33;76.80
71047;SHT31;58703;48.978;8.982;2023-01-29T15:57:01;1.07;77.83
71047;SHT31;58703;48.978;8.982;2023-01-29T15:59:39;0.89;79.12
71047;SHT31;58703;48.978;8.982;2023-01-29T16:02:39;0.66;80.29
71047;SHT31;58703;48.978;8.982;2023-01-29T16:05:12;0.51;80.61
71047;SHT31;58703;48.978;8.982;2023-01-29T16:07:38;0.34;80.96
71047;SHT31;58703;48.978;8.982;2023-01-29T16:10:06;0.30;81.36
71047;SHT31;58703;48.978;8.982;2023-01-29T16:12:33;0.21;81.35
71047;SHT31;58703;48.978;8.982;2023-01-29T16:15:03;0.15;81.76
71047;SHT31;58703;48.978;8.982;2023-01-29T16:17:32;0.06;82.65
71047;SHT31;58703;48.978;8.982;2023-01-29T16:20:28;0.01;83.51
71047;SHT31;58703;48.978;8.982;2023-01-29T16:22:55;-0.20;83.41
71047;SHT31;58703;48.978;8.982;2023-01-29T16:25:23;-0.31;84.77
71047;SHT31;58703;48.978;8.982;2023-01-29T16:27:50;-0.42;85.90
71047;SHT31;58703;48.978;8.982;2023-01-29T16:30:18;-0.47;86.70
71047;SHT31;58703;48.978;8.982;2023-01-29T16:32:45;-0.54;87.08
71047;SHT31;58703;48.978;8.982;2023-01-29T16:35:15;-0.72;87.87
71047;SHT31;58703;48.978;8.982;2023-01-29T16:37:46;-0.82;87.68
71047;SHT31;58703;48.978;8.982;2023-01-29T16:40:25;-0.88;87.46
71047;SHT31;58703;48.978;8.982;2023-01-29T16:46:43;-0.88;87.83
71047;SHT31;58703;48.978;8.982;2023-01-29T16:51:54;-1.13;88.57
71047;SHT31;58703;48.978;8.982;2023-01-29T16:54:26;-1.36;89.36
71047;SHT31;58703;48.978;8.982;2023-01-29T16:56:58;-1.26;89.39
71047;SHT31;58703;48.978;8.982;2023-01-29T16:59:35;-1.37;89.78
71047;SHT31;58703;48.978;8.982;2023-01-29T17:02:03;-1.51;90.10
71047;SHT31;58703;48.978;8.982;2023-01-29T17:04:35;-1.54;90.13
71047;SHT31;58703;48.978;8.982;2023-01-29T17:07:01;-1.60;90.43
71047;SHT31;58703;48.978;8.982;2023-01-29T17:09:42;-1.58;90.19
71047;SHT31;58703;48.978;8.982;2023-01-29T17:12:17;-1.56;89.91
71047;SHT31;58703;48.978;8.982;2023-01-29T17:14:54;-1.58;89.50
71047;SHT31;58703;48.978;8.982;2023-01-29T17:17:28;-1.70;89.37
71047;SHT31;58703;48.978;8.982;2023-01-29T17:19:56;-1.78;89.49
71047;SHT31;58703;48.978;8.982;2023-01-29T17:22:23;-1.94;89.80
71047;SHT31;58703;48.978;8.982;2023-01-29T17:24:50;-1.88;90.55
71047;SHT31;58703;48.978;8.982;2023-01-29T17:27:19;-1.98;90.96
71047;SHT31;58703;48.978;8.982;2023-01-29T17:29:47;-1.89;90.50
71047;SHT31;58703;48.978;8.982;2023-01-29T17:32:15;-1.67;89.48
71047;SHT31;58703;48.978;8.982;2023-01-29T17:34:44;-1.51;88.50
71047;SHT31;58703;48.978;8.982;2023-01-29T17:37:13;-1.35;87.82
71047;SHT31;58703;48.978;8.982;2023-01-29T17:39:42;-1.25;87.21
71047;SHT31;58703;48.978;8.982;2023-01-29T17:42:13;-1.30;87.63
71047;SHT31;58703;48.978;8.982;2023-01-29T17:44:42;-1.29;87.80
71047;SHT31;58703;48.978;8.982;2023-01-29T17:47:11;-1.23;87.74
71047;SHT31;58703;48.978;8.982;2023-01-29T17:49:40;-1.26;87.83
71047;SHT31;58703;48.978;8.982;2023-01-29T17:52:07;-1.35;87.87
71047;SHT31;58703;48.978;8.982;2023-01-29T17:54:35;-1.33;87.81
71047;SHT31;58703;48.978;8.982;2023-01-29T17:57:02;-1.35;87.89
71047;SHT31;58703;48.978;8.982;2023-01-29T17:59:30;-1.57;88.55
71047;SHT31;58703;48.978;8.982;2023-01-29T18:01:57;-1.85;90.43
71047;SHT31;58703;48.978;8.982;2023-01-29T18:04:24;-2.03;92.03
71047;SHT31;58703;48.978;8.982;2023-01-29T18:06:52;-2.28;92.90
71047;SHT31;58703;48.978;8.982;2023-01-29T18:09:20;-1.91;91.71
71047;SHT31;58703;48.978;8.982;2023-01-29T18:11:48;-1.68;90.01
71047;SHT31;58703;48.978;8.982;2023-01-29T18:14:16;-1.95;90.97